VOE75DE LICJ-LFBO
Flight info
| Callsign | VOE75DE |
|---|---|
| Flight time | 1h 40m |
| Altitude | 36000 |
| Route | GIANO DCT ABKON DCT LABOM DCT NISEK DCT ORBIL |
| Aircraft | A319/M-SDE3FGHIRWY/LB1 |
Departure
| Time | 2026-05-07 15:37 |
|---|---|
| Airport | Falcone–Borsellino Airport (LICJ) |
Arrival
| Time | 2026-05-07 17:17 |
|---|---|
| Airport | Toulouse-Blagnac Airport (LFBO) |
| Time | Latitude | Longitude | Altitude | Speed | Heading |
|---|---|---|---|---|---|
| 2026-05-07 14:57 | 38.18368 | 13.10192 | 53 ft | 0 kts | 247° |
| 2026-05-07 15:25 | 38.18372 | 13.10205 | 53 ft | 4 kts | 251° |
| 2026-05-07 15:25 | 38.18378 | 13.10238 | 48 ft | 4 kts | 265° |
| 2026-05-07 15:25 | 38.18380 | 13.10272 | 53 ft | 4 kts | 255° |
| 2026-05-07 15:26 | 38.18379 | 13.10288 | 53 ft | 3 kts | 163° |
| 2026-05-07 15:26 | 38.18380 | 13.10288 | 53 ft | 0 kts | 156° |
| 2026-05-07 15:29 | 38.18379 | 13.10288 | 53 ft | 1 kts | 156° |
| 2026-05-07 15:30 | 38.18362 | 13.10298 | 49 ft | 5 kts | 156° |
| 2026-05-07 15:30 | 38.18331 | 13.10315 | 53 ft | 5 kts | 156° |
| 2026-05-07 15:30 | 38.18296 | 13.10335 | 53 ft | 6 kts | 156° |
| 2026-05-07 15:30 | 38.18250 | 13.10369 | 53 ft | 9 kts | 153° |
| 2026-05-07 15:31 | 38.18194 | 13.10330 | 53 ft | 12 kts | 252° |
| 2026-05-07 15:31 | 38.18162 | 13.10209 | 53 ft | 16 kts | 248° |
| 2026-05-07 15:31 | 38.18114 | 13.10071 | 53 ft | 18 kts | 246° |
| 2026-05-07 15:31 | 38.18064 | 13.09925 | 53 ft | 19 kts | 246° |
| 2026-05-07 15:32 | 38.18013 | 13.09765 | 51 ft | 20 kts | 251° |
| 2026-05-07 15:32 | 38.17957 | 13.09600 | 50 ft | 21 kts | 247° |
| 2026-05-07 15:32 | 38.17897 | 13.09427 | 53 ft | 22 kts | 246° |
| 2026-05-07 15:32 | 38.17835 | 13.09246 | 53 ft | 23 kts | 246° |
| 2026-05-07 15:33 | 38.17771 | 13.09057 | 53 ft | 24 kts | 248° |
| 2026-05-07 15:33 | 38.17681 | 13.08891 | 53 ft | 23 kts | 214° |
| 2026-05-07 15:33 | 38.17552 | 13.08769 | 51 ft | 23 kts | 214° |
| 2026-05-07 15:33 | 38.17464 | 13.08766 | 53 ft | 4 kts | 63° |
| 2026-05-07 15:34 | 38.17484 | 13.08804 | 53 ft | 1 kts | 66° |
| 2026-05-07 15:34 | 38.17485 | 13.08805 | 53 ft | 0 kts | 66° |
| 2026-05-07 15:36 | 38.17550 | 13.08998 | 52 ft | 62 kts | 66° |
| 2026-05-07 15:36 | 38.17811 | 13.09778 | 52 ft | 127 kts | 67° |
| 2026-05-07 15:36 | 38.18235 | 13.11023 | 86 ft | 175 kts | 65° |
| 2026-05-07 15:37 | 38.18728 | 13.12473 | 619 ft | 179 kts | 65° |
| 2026-05-07 15:37 | 38.19213 | 13.13916 | 1362 ft | 176 kts | 67° |
| 2026-05-07 15:37 | 38.19688 | 13.15334 | 1963 ft | 182 kts | 67° |
| 2026-05-07 15:37 | 38.20213 | 13.16904 | 2225 ft | 205 kts | 67° |
| 2026-05-07 15:38 | 38.20829 | 13.18658 | 2519 ft | 229 kts | 60° |
| 2026-05-07 15:38 | 38.22004 | 13.20157 | 2829 ft | 255 kts | 28° |
| 2026-05-07 15:38 | 38.23681 | 13.21062 | 3532 ft | 267 kts | 22° |
| 2026-05-07 15:38 | 38.25423 | 13.21964 | 4389 ft | 274 kts | 23° |
| 2026-05-07 15:39 | 38.27201 | 13.22901 | 5272 ft | 279 kts | 23° |
| 2026-05-07 15:39 | 38.29002 | 13.23858 | 6202 ft | 283 kts | 23° |
| 2026-05-07 15:39 | 38.30830 | 13.24833 | 7036 ft | 287 kts | 22° |
| 2026-05-07 15:39 | 38.32663 | 13.25815 | 7868 ft | 292 kts | 22° |
| 2026-05-07 15:40 | 38.34548 | 13.26825 | 8686 ft | 297 kts | 21° |
| 2026-05-07 15:40 | 38.36473 | 13.27851 | 9499 ft | 302 kts | 20° |
| 2026-05-07 15:40 | 38.38528 | 13.28519 | 10142 ft | 313 kts | 4° |
| 2026-05-07 15:40 | 38.40757 | 13.28291 | 10399 ft | 333 kts | 342° |
| 2026-05-07 15:41 | 38.42859 | 13.27006 | 10950 ft | 339 kts | 321° |
| 2026-05-07 15:41 | 38.44506 | 13.24881 | 11665 ft | 338 kts | 303° |
| 2026-05-07 15:41 | 38.45840 | 13.22408 | 12466 ft | 339 kts | 301° |
| 2026-05-07 15:41 | 38.47175 | 13.19906 | 13261 ft | 342 kts | 301° |
| 2026-05-07 15:42 | 38.48497 | 13.17425 | 13987 ft | 344 kts | 301° |
| 2026-05-07 15:42 | 38.49849 | 13.14892 | 14686 ft | 346 kts | 301° |
| 2026-05-07 15:42 | 38.51205 | 13.12349 | 15397 ft | 347 kts | 301° |
| 2026-05-07 15:42 | 38.52569 | 13.09795 | 16103 ft | 349 kts | 301° |
| 2026-05-07 15:43 | 38.53940 | 13.07229 | 16794 ft | 351 kts | 300° |
| 2026-05-07 15:43 | 38.55316 | 13.04649 | 17490 ft | 352 kts | 300° |
| 2026-05-07 15:43 | 38.56698 | 13.02052 | 18168 ft | 354 kts | 300° |
| 2026-05-07 15:43 | 38.58086 | 12.99438 | 18756 ft | 356 kts | 300° |
| 2026-05-07 15:44 | 38.59462 | 12.96846 | 19351 ft | 358 kts | 299° |
| 2026-05-07 15:44 | 38.60861 | 12.94208 | 19959 ft | 359 kts | 299° |
| 2026-05-07 15:44 | 38.62266 | 12.91557 | 20564 ft | 361 kts | 299° |
| 2026-05-07 15:44 | 38.63677 | 12.88892 | 21168 ft | 363 kts | 299° |
| 2026-05-07 15:45 | 38.65098 | 12.86214 | 21756 ft | 365 kts | 299° |
| 2026-05-07 15:45 | 38.66526 | 12.83524 | 22346 ft | 366 kts | 299° |
| 2026-05-07 15:45 | 38.67476 | 12.81735 | 22735 ft | 368 kts | 299° |
| 2026-05-07 15:45 | 38.69401 | 12.78099 | 23497 ft | 370 kts | 298° |
| 2026-05-07 15:46 | 38.72274 | 12.72647 | 24406 ft | 374 kts | 298° |
| 2026-05-07 15:46 | 38.73733 | 12.69878 | 24845 ft | 376 kts | 298° |
| 2026-05-07 15:46 | 38.75200 | 12.67093 | 25274 ft | 378 kts | 297° |
| 2026-05-07 15:47 | 38.76671 | 12.64298 | 25698 ft | 380 kts | 297° |
| 2026-05-07 15:47 | 38.77651 | 12.62437 | 25979 ft | 381 kts | 297° |
| 2026-05-07 15:47 | 38.79136 | 12.59618 | 26412 ft | 382 kts | 297° |
| 2026-05-07 15:47 | 38.81108 | 12.55857 | 26946 ft | 385 kts | 296° |
| 2026-05-07 15:48 | 38.82603 | 12.53006 | 27353 ft | 386 kts | 296° |
| 2026-05-07 15:48 | 38.84104 | 12.50136 | 27758 ft | 388 kts | 296° |
| 2026-05-07 15:48 | 38.85610 | 12.47251 | 28164 ft | 390 kts | 296° |
| 2026-05-07 15:48 | 38.86609 | 12.45335 | 28426 ft | 391 kts | 296° |
| 2026-05-07 15:49 | 38.88194 | 12.42465 | 28813 ft | 396 kts | 298° |
| 2026-05-07 15:49 | 38.89893 | 12.39661 | 29224 ft | 400 kts | 300° |
| 2026-05-07 15:49 | 38.91660 | 12.36896 | 29640 ft | 402 kts | 301° |
| 2026-05-07 15:49 | 38.93456 | 12.34143 | 30087 ft | 402 kts | 301° |
| 2026-05-07 15:50 | 38.95830 | 12.30485 | 30559 ft | 402 kts | 300° |
| 2026-05-07 15:50 | 38.97029 | 12.28614 | 30782 ft | 402 kts | 300° |
| 2026-05-07 15:50 | 38.98772 | 12.25855 | 31085 ft | 403 kts | 299° |
| 2026-05-07 15:50 | 39.00523 | 12.23044 | 31389 ft | 404 kts | 298° |
| 2026-05-07 15:51 | 39.02275 | 12.20215 | 31689 ft | 405 kts | 298° |
| 2026-05-07 15:51 | 39.04027 | 12.17378 | 32045 ft | 404 kts | 297° |
| 2026-05-07 15:51 | 39.05776 | 12.14551 | 32484 ft | 402 kts | 297° |
| 2026-05-07 15:51 | 39.07519 | 12.11743 | 32919 ft | 400 kts | 297° |
| 2026-05-07 15:52 | 39.09252 | 12.08953 | 33351 ft | 398 kts | 296° |
| 2026-05-07 15:52 | 39.10974 | 12.06174 | 33783 ft | 396 kts | 296° |
| 2026-05-07 15:52 | 39.12686 | 12.03412 | 34206 ft | 394 kts | 296° |
| 2026-05-07 15:52 | 39.14370 | 12.00695 | 34555 ft | 393 kts | 296° |
| 2026-05-07 15:53 | 39.16073 | 11.97952 | 34904 ft | 391 kts | 296° |
| 2026-05-07 15:53 | 39.17765 | 11.95221 | 35244 ft | 389 kts | 296° |
| 2026-05-07 15:53 | 39.19445 | 11.92500 | 35618 ft | 387 kts | 296° |
| 2026-05-07 15:53 | 39.21114 | 11.89789 | 35952 ft | 385 kts | 296° |
| 2026-05-07 15:54 | 39.22775 | 11.87086 | 36285 ft | 383 kts | 296° |
| 2026-05-07 15:54 | 39.24423 | 11.84399 | 36597 ft | 382 kts | 296° |
| 2026-05-07 15:54 | 39.26069 | 11.81714 | 36858 ft | 381 kts | 296° |
| 2026-05-07 15:55 | 39.29358 | 11.76337 | 36907 ft | 390 kts | 296° |
| 2026-05-07 15:55 | 39.32763 | 11.70766 | 36917 ft | 399 kts | 296° |
| 2026-05-07 15:56 | 39.36228 | 11.65126 | 36917 ft | 402 kts | 296° |
| 2026-05-07 15:56 | 39.39710 | 11.59454 | 36923 ft | 404 kts | 296° |
| 2026-05-07 15:57 | 39.43162 | 11.53809 | 36923 ft | 404 kts | 296° |
| 2026-05-07 15:57 | 39.46634 | 11.48111 | 36956 ft | 404 kts | 295° |
| 2026-05-07 15:58 | 39.50105 | 11.42402 | 36954 ft | 403 kts | 295° |
| 2026-05-07 15:58 | 39.53558 | 11.36704 | 36951 ft | 402 kts | 295° |
| 2026-05-07 15:59 | 39.57010 | 11.31011 | 36953 ft | 401 kts | 295° |
| 2026-05-07 15:59 | 39.60432 | 11.25358 | 36966 ft | 400 kts | 295° |
| 2026-05-07 16:00 | 39.63851 | 11.19686 | 36964 ft | 400 kts | 295° |
| 2026-05-07 16:00 | 39.67275 | 11.13997 | 36959 ft | 400 kts | 295° |
| 2026-05-07 16:01 | 39.70699 | 11.08301 | 36962 ft | 400 kts | 295° |
| 2026-05-07 16:01 | 39.74088 | 11.02643 | 36973 ft | 400 kts | 295° |
| 2026-05-07 16:02 | 39.77504 | 10.96942 | 36966 ft | 400 kts | 295° |
| 2026-05-07 16:02 | 39.80922 | 10.91237 | 36964 ft | 400 kts | 295° |
| 2026-05-07 16:03 | 39.84331 | 10.85527 | 36961 ft | 400 kts | 295° |
| 2026-05-07 16:03 | 39.87546 | 10.79762 | 36956 ft | 386 kts | 286° |
| 2026-05-07 16:04 | 39.89872 | 10.73549 | 36959 ft | 381 kts | 284° |
| 2026-05-07 16:04 | 39.92143 | 10.67425 | 36958 ft | 382 kts | 284° |
| 2026-05-07 16:05 | 39.94448 | 10.61219 | 36960 ft | 382 kts | 284° |
| 2026-05-07 16:05 | 39.96721 | 10.55069 | 36984 ft | 382 kts | 284° |
| 2026-05-07 16:06 | 39.98992 | 10.48898 | 36969 ft | 383 kts | 284° |
| 2026-05-07 16:06 | 40.01284 | 10.42691 | 36986 ft | 384 kts | 284° |
| 2026-05-07 16:07 | 40.03575 | 10.36478 | 36976 ft | 385 kts | 284° |
| 2026-05-07 16:07 | 40.05832 | 10.30311 | 36970 ft | 385 kts | 284° |
| 2026-05-07 16:08 | 40.08122 | 10.24036 | 36970 ft | 385 kts | 284° |
| 2026-05-07 16:08 | 40.10430 | 10.17711 | 36965 ft | 386 kts | 283° |
| 2026-05-07 16:09 | 40.12740 | 10.11362 | 36948 ft | 388 kts | 283° |
| 2026-05-07 16:09 | 40.15062 | 10.04978 | 36947 ft | 389 kts | 283° |
| 2026-05-07 16:10 | 40.17384 | 9.98578 | 36951 ft | 390 kts | 283° |
| 2026-05-07 16:10 | 40.19695 | 9.92208 | 36962 ft | 390 kts | 283° |
| 2026-05-07 16:10 | 40.20850 | 9.89012 | 36555 ft | 388 kts | 284° |
| 2026-05-07 16:11 | 40.22004 | 9.85802 | 35690 ft | 392 kts | 285° |
| 2026-05-07 16:11 | 40.23168 | 9.82552 | 35185 ft | 397 kts | 285° |
| 2026-05-07 16:11 | 40.24351 | 9.79244 | 34389 ft | 405 kts | 287° |
| 2026-05-07 16:11 | 40.25559 | 9.75870 | 33456 ft | 414 kts | 288° |
| 2026-05-07 16:12 | 40.26775 | 9.72482 | 33125 ft | 421 kts | 288° |
| 2026-05-07 16:12 | 40.28031 | 9.68986 | 32932 ft | 425 kts | 288° |
| 2026-05-07 16:12 | 40.29291 | 9.65477 | 32961 ft | 427 kts | 288° |
| 2026-05-07 16:13 | 40.31822 | 9.58413 | 32959 ft | 428 kts | 288° |
| 2026-05-07 16:13 | 40.34343 | 9.51352 | 32962 ft | 428 kts | 288° |
| 2026-05-07 16:14 | 40.36864 | 9.44278 | 32973 ft | 429 kts | 288° |
| 2026-05-07 16:14 | 40.39424 | 9.37225 | 32952 ft | 433 kts | 290° |
| 2026-05-07 16:15 | 40.42267 | 9.30224 | 32956 ft | 436 kts | 291° |
| 2026-05-07 16:15 | 40.45183 | 9.23256 | 32947 ft | 435 kts | 291° |
| 2026-05-07 16:16 | 40.48046 | 9.16263 | 32947 ft | 435 kts | 291° |
| 2026-05-07 16:16 | 40.50854 | 9.09286 | 32952 ft | 435 kts | 291° |
| 2026-05-07 16:17 | 40.53674 | 9.02252 | 32946 ft | 435 kts | 290° |
| 2026-05-07 16:17 | 40.56498 | 8.95220 | 32948 ft | 435 kts | 290° |
| 2026-05-07 16:18 | 40.59309 | 8.88188 | 32940 ft | 434 kts | 290° |
| 2026-05-07 16:18 | 40.62117 | 8.81154 | 32939 ft | 434 kts | 290° |
| 2026-05-07 16:19 | 40.64902 | 8.74164 | 32936 ft | 434 kts | 290° |
| 2026-05-07 16:19 | 40.67706 | 8.67109 | 32935 ft | 437 kts | 290° |
| 2026-05-07 16:20 | 40.70534 | 8.59992 | 32933 ft | 439 kts | 290° |
| 2026-05-07 16:20 | 40.73362 | 8.52860 | 32935 ft | 439 kts | 290° |
| 2026-05-07 16:21 | 40.76162 | 8.45778 | 32935 ft | 439 kts | 290° |
| 2026-05-07 16:21 | 40.78972 | 8.38636 | 32935 ft | 438 kts | 290° |
| 2026-05-07 16:22 | 40.81772 | 8.31478 | 32946 ft | 441 kts | 290° |
| 2026-05-07 16:22 | 40.84591 | 8.24278 | 32944 ft | 441 kts | 290° |
| 2026-05-07 16:23 | 40.87389 | 8.17132 | 32942 ft | 440 kts | 290° |
| 2026-05-07 16:23 | 40.90199 | 8.09942 | 32943 ft | 440 kts | 290° |
| 2026-05-07 16:24 | 40.93002 | 8.02743 | 32950 ft | 440 kts | 290° |
| 2026-05-07 16:24 | 40.95802 | 7.95534 | 32958 ft | 441 kts | 290° |
| 2026-05-07 16:25 | 40.98588 | 7.88326 | 32951 ft | 444 kts | 290° |
| 2026-05-07 16:25 | 41.01397 | 7.81047 | 32956 ft | 444 kts | 290° |
| 2026-05-07 16:26 | 41.04222 | 7.73766 | 32956 ft | 445 kts | 291° |
| 2026-05-07 16:26 | 41.07340 | 7.66642 | 32956 ft | 448 kts | 294° |
| 2026-05-07 16:27 | 41.10612 | 7.59601 | 32964 ft | 448 kts | 294° |
| 2026-05-07 16:27 | 41.13799 | 7.52582 | 32956 ft | 447 kts | 293° |
| 2026-05-07 16:28 | 41.16949 | 7.45459 | 32962 ft | 447 kts | 292° |
| 2026-05-07 16:28 | 41.20080 | 7.38332 | 32958 ft | 447 kts | 292° |
| 2026-05-07 16:29 | 41.23223 | 7.31198 | 32963 ft | 447 kts | 292° |
| 2026-05-07 16:29 | 41.26343 | 7.24112 | 32960 ft | 447 kts | 292° |
| 2026-05-07 16:30 | 41.29476 | 7.16978 | 32962 ft | 447 kts | 292° |
| 2026-05-07 16:30 | 41.32601 | 7.09841 | 32966 ft | 447 kts | 292° |
| 2026-05-07 16:31 | 41.35714 | 7.02698 | 32969 ft | 444 kts | 292° |
| 2026-05-07 16:31 | 41.38781 | 6.95658 | 32964 ft | 441 kts | 292° |
| 2026-05-07 16:32 | 41.41850 | 6.88589 | 32966 ft | 441 kts | 292° |
| 2026-05-07 16:32 | 41.44921 | 6.81513 | 32968 ft | 441 kts | 292° |
| 2026-05-07 16:33 | 41.47987 | 6.74431 | 32967 ft | 442 kts | 292° |
| 2026-05-07 16:33 | 41.51056 | 6.67325 | 32967 ft | 442 kts | 291° |
| 2026-05-07 16:34 | 41.54090 | 6.60265 | 32967 ft | 442 kts | 291° |
| 2026-05-07 16:34 | 41.57143 | 6.53151 | 32967 ft | 442 kts | 291° |
| 2026-05-07 16:35 | 41.60195 | 6.46040 | 32981 ft | 441 kts | 291° |
| 2026-05-07 16:35 | 41.63241 | 6.38924 | 32973 ft | 441 kts | 291° |
| 2026-05-07 16:36 | 41.66259 | 6.31841 | 32963 ft | 441 kts | 291° |
| 2026-05-07 16:36 | 41.69292 | 6.24705 | 32972 ft | 441 kts | 291° |
| 2026-05-07 16:37 | 41.72329 | 6.17570 | 32969 ft | 441 kts | 291° |
| 2026-05-07 16:37 | 41.75352 | 6.10438 | 32971 ft | 441 kts | 291° |
| 2026-05-07 16:38 | 41.78379 | 6.03268 | 32966 ft | 442 kts | 291° |
| 2026-05-07 16:38 | 41.81384 | 5.96126 | 32969 ft | 443 kts | 291° |
| 2026-05-07 16:39 | 41.84414 | 5.88937 | 32975 ft | 442 kts | 291° |
| 2026-05-07 16:39 | 41.87418 | 5.81766 | 32969 ft | 440 kts | 291° |
| 2026-05-07 16:40 | 41.90410 | 5.74594 | 32967 ft | 440 kts | 291° |
| 2026-05-07 16:40 | 41.93385 | 5.67470 | 32971 ft | 441 kts | 291° |
| 2026-05-07 16:41 | 41.96387 | 5.60263 | 32969 ft | 442 kts | 291° |
| 2026-05-07 16:41 | 41.99387 | 5.53051 | 32969 ft | 442 kts | 291° |
| 2026-05-07 16:42 | 42.02384 | 5.45826 | 32971 ft | 442 kts | 291° |
| 2026-05-07 16:42 | 42.05370 | 5.38601 | 32972 ft | 442 kts | 291° |
| 2026-05-07 16:43 | 42.08333 | 5.31414 | 32979 ft | 442 kts | 290° |
| 2026-05-07 16:43 | 42.11304 | 5.24165 | 32968 ft | 442 kts | 290° |
| 2026-05-07 16:44 | 42.14274 | 5.16920 | 32969 ft | 442 kts | 290° |
| 2026-05-07 16:44 | 42.17248 | 5.09663 | 32965 ft | 442 kts | 290° |
| 2026-05-07 16:45 | 42.20214 | 5.02398 | 32966 ft | 442 kts | 290° |
| 2026-05-07 16:45 | 42.23151 | 4.95181 | 32989 ft | 442 kts | 290° |
| 2026-05-07 16:46 | 42.26114 | 4.87886 | 32968 ft | 443 kts | 291° |
| 2026-05-07 16:46 | 42.29074 | 4.80581 | 32963 ft | 444 kts | 291° |
| 2026-05-07 16:47 | 42.32035 | 4.73276 | 32966 ft | 442 kts | 291° |
| 2026-05-07 16:47 | 42.34949 | 4.66051 | 32966 ft | 440 kts | 291° |
| 2026-05-07 16:48 | 42.37877 | 4.58774 | 32964 ft | 440 kts | 291° |
| 2026-05-07 16:48 | 42.40790 | 4.51514 | 32965 ft | 439 kts | 291° |
| 2026-05-07 16:49 | 42.43691 | 4.44246 | 32964 ft | 438 kts | 291° |
| 2026-05-07 16:49 | 42.46565 | 4.37027 | 32965 ft | 438 kts | 291° |
| 2026-05-07 16:50 | 42.49451 | 4.29793 | 32967 ft | 438 kts | 291° |
| 2026-05-07 16:50 | 42.52350 | 4.22530 | 32968 ft | 438 kts | 291° |
| 2026-05-07 16:51 | 42.55238 | 4.15257 | 32959 ft | 436 kts | 290° |
| 2026-05-07 16:51 | 42.58091 | 4.08011 | 32964 ft | 435 kts | 290° |
| 2026-05-07 16:52 | 42.60923 | 4.00806 | 32964 ft | 435 kts | 290° |
| 2026-05-07 16:52 | 42.63767 | 3.93556 | 32966 ft | 435 kts | 290° |
| 2026-05-07 16:53 | 42.66617 | 3.86307 | 32959 ft | 435 kts | 290° |
| 2026-05-07 16:53 | 42.69461 | 3.79037 | 32965 ft | 436 kts | 289° |
| 2026-05-07 16:54 | 42.72307 | 3.71725 | 32965 ft | 439 kts | 290° |
| 2026-05-07 16:54 | 42.75135 | 3.64455 | 32964 ft | 439 kts | 290° |
| 2026-05-07 16:55 | 42.77995 | 3.57103 | 32962 ft | 439 kts | 290° |
| 2026-05-07 16:55 | 42.80847 | 3.49752 | 32965 ft | 439 kts | 289° |
| 2026-05-07 16:56 | 42.83690 | 3.42393 | 32961 ft | 439 kts | 289° |
| 2026-05-07 16:56 | 42.85107 | 3.38714 | 32853 ft | 437 kts | 289° |
| 2026-05-07 16:56 | 42.87898 | 3.31464 | 32322 ft | 435 kts | 290° |
| 2026-05-07 16:57 | 42.89304 | 3.27805 | 32065 ft | 435 kts | 290° |
| 2026-05-07 16:57 | 42.90706 | 3.24154 | 31460 ft | 435 kts | 291° |
| 2026-05-07 16:57 | 42.92117 | 3.20469 | 30374 ft | 440 kts | 291° |
| 2026-05-07 16:57 | 42.93519 | 3.16798 | 29797 ft | 433 kts | 292° |
| 2026-05-07 16:58 | 42.94902 | 3.13184 | 29142 ft | 426 kts | 292° |
| 2026-05-07 16:58 | 42.96262 | 3.09631 | 28541 ft | 419 kts | 292° |
| 2026-05-07 16:58 | 42.97597 | 3.06135 | 27941 ft | 413 kts | 292° |
| 2026-05-07 16:58 | 42.98902 | 3.02712 | 27362 ft | 409 kts | 292° |
| 2026-05-07 16:59 | 43.00194 | 2.99311 | 26780 ft | 404 kts | 292° |
| 2026-05-07 16:59 | 43.01485 | 2.95902 | 26207 ft | 400 kts | 293° |
| 2026-05-07 16:59 | 43.02759 | 2.92534 | 25640 ft | 397 kts | 293° |
| 2026-05-07 16:59 | 43.04022 | 2.89193 | 25071 ft | 394 kts | 293° |
| 2026-05-07 17:00 | 43.05277 | 2.85877 | 24513 ft | 392 kts | 294° |
| 2026-05-07 17:00 | 43.06530 | 2.82569 | 23983 ft | 391 kts | 294° |
| 2026-05-07 17:00 | 43.07774 | 2.79277 | 23427 ft | 390 kts | 294° |
| 2026-05-07 17:00 | 43.09016 | 2.75985 | 22880 ft | 388 kts | 294° |
| 2026-05-07 17:01 | 43.10233 | 2.72753 | 22379 ft | 385 kts | 294° |
| 2026-05-07 17:01 | 43.11451 | 2.69512 | 21918 ft | 381 kts | 294° |
| 2026-05-07 17:01 | 43.12659 | 2.66295 | 21457 ft | 378 kts | 294° |
| 2026-05-07 17:01 | 43.13855 | 2.63107 | 21007 ft | 375 kts | 294° |
| 2026-05-07 17:02 | 43.15040 | 2.59942 | 20566 ft | 371 kts | 294° |
| 2026-05-07 17:02 | 43.16209 | 2.56814 | 20102 ft | 368 kts | 295° |
| 2026-05-07 17:02 | 43.17371 | 2.53715 | 19661 ft | 364 kts | 295° |
| 2026-05-07 17:02 | 43.18741 | 2.50801 | 19191 ft | 364 kts | 306° |
| 2026-05-07 17:03 | 43.20494 | 2.48286 | 18716 ft | 365 kts | 317° |
| 2026-05-07 17:03 | 43.22531 | 2.46285 | 18231 ft | 367 kts | 326° |
| 2026-05-07 17:03 | 43.24695 | 2.44435 | 17685 ft | 366 kts | 326° |
| 2026-05-07 17:03 | 43.26840 | 2.42593 | 17183 ft | 363 kts | 326° |
| 2026-05-07 17:04 | 43.28974 | 2.40750 | 16680 ft | 361 kts | 325° |
| 2026-05-07 17:04 | 43.31095 | 2.38913 | 16179 ft | 359 kts | 326° |
| 2026-05-07 17:04 | 43.33117 | 2.36927 | 15686 ft | 356 kts | 317° |
| 2026-05-07 17:04 | 43.34804 | 2.34468 | 15198 ft | 352 kts | 305° |
| 2026-05-07 17:05 | 43.36091 | 2.31645 | 14723 ft | 347 kts | 294° |
| 2026-05-07 17:05 | 43.37074 | 2.28631 | 14259 ft | 345 kts | 292° |
| 2026-05-07 17:05 | 43.38042 | 2.25617 | 13778 ft | 344 kts | 292° |
| 2026-05-07 17:05 | 43.38995 | 2.22667 | 13305 ft | 342 kts | 292° |
| 2026-05-07 17:06 | 43.39955 | 2.19696 | 12812 ft | 338 kts | 292° |
| 2026-05-07 17:06 | 43.40906 | 2.16749 | 12340 ft | 335 kts | 292° |
| 2026-05-07 17:06 | 43.41847 | 2.13829 | 11855 ft | 333 kts | 292° |
| 2026-05-07 17:06 | 43.42780 | 2.10934 | 11363 ft | 330 kts | 292° |
| 2026-05-07 17:07 | 43.43708 | 2.08046 | 10868 ft | 328 kts | 292° |
| 2026-05-07 17:07 | 43.44626 | 2.05187 | 10484 ft | 323 kts | 293° |
| 2026-05-07 17:07 | 43.45513 | 2.02422 | 10353 ft | 308 kts | 293° |
| 2026-05-07 17:07 | 43.46339 | 1.99844 | 10117 ft | 291 kts | 293° |
| 2026-05-07 17:08 | 43.47142 | 1.97332 | 9894 ft | 285 kts | 293° |
| 2026-05-07 17:08 | 43.47936 | 1.94841 | 9763 ft | 283 kts | 293° |
| 2026-05-07 17:08 | 43.48705 | 1.92353 | 9626 ft | 283 kts | 288° |
| 2026-05-07 17:08 | 43.49125 | 1.89716 | 9289 ft | 284 kts | 274° |
| 2026-05-07 17:09 | 43.49092 | 1.86988 | 8853 ft | 285 kts | 266° |
| 2026-05-07 17:09 | 43.48990 | 1.84283 | 8565 ft | 282 kts | 267° |
| 2026-05-07 17:09 | 43.48898 | 1.81580 | 8181 ft | 282 kts | 267° |
| 2026-05-07 17:09 | 43.48809 | 1.78889 | 7865 ft | 278 kts | 267° |
| 2026-05-07 17:10 | 43.48724 | 1.76333 | 7732 ft | 265 kts | 268° |
| 2026-05-07 17:10 | 43.48641 | 1.73830 | 7448 ft | 259 kts | 268° |
| 2026-05-07 17:10 | 43.48557 | 1.71365 | 7053 ft | 257 kts | 268° |
| 2026-05-07 17:10 | 43.48475 | 1.68923 | 6536 ft | 255 kts | 268° |
| 2026-05-07 17:11 | 43.48392 | 1.66491 | 5966 ft | 253 kts | 268° |
| 2026-05-07 17:11 | 43.48311 | 1.64087 | 5505 ft | 250 kts | 268° |
| 2026-05-07 17:11 | 43.48226 | 1.61709 | 5074 ft | 249 kts | 265° |
| 2026-05-07 17:11 | 43.47915 | 1.59371 | 4633 ft | 248 kts | 257° |
| 2026-05-07 17:12 | 43.47540 | 1.57060 | 4265 ft | 242 kts | 257° |
| 2026-05-07 17:12 | 43.47226 | 1.54924 | 4167 ft | 225 kts | 265° |
| 2026-05-07 17:12 | 43.47465 | 1.52861 | 3990 ft | 216 kts | 295° |
| 2026-05-07 17:12 | 43.48352 | 1.51254 | 3782 ft | 210 kts | 321° |
| 2026-05-07 17:13 | 43.49511 | 1.50046 | 3520 ft | 209 kts | 324° |
| 2026-05-07 17:13 | 43.50678 | 1.48848 | 3280 ft | 208 kts | 325° |
| 2026-05-07 17:13 | 43.51819 | 1.47668 | 2961 ft | 201 kts | 324° |
| 2026-05-07 17:13 | 43.52909 | 1.46540 | 2701 ft | 189 kts | 324° |
| 2026-05-07 17:14 | 43.53938 | 1.45474 | 2459 ft | 183 kts | 325° |
| 2026-05-07 17:14 | 43.54929 | 1.44446 | 2220 ft | 173 kts | 324° |
| 2026-05-07 17:14 | 43.55860 | 1.43480 | 1996 ft | 163 kts | 325° |
| 2026-05-07 17:14 | 43.56742 | 1.42566 | 1779 ft | 154 kts | 325° |
| 2026-05-07 17:15 | 43.57570 | 1.41707 | 1518 ft | 148 kts | 325° |
| 2026-05-07 17:15 | 43.58374 | 1.40871 | 1314 ft | 141 kts | 326° |
| 2026-05-07 17:15 | 43.59140 | 1.40082 | 1157 ft | 134 kts | 326° |
| 2026-05-07 17:15 | 43.59893 | 1.39300 | 999 ft | 137 kts | 324° |
| 2026-05-07 17:16 | 43.60659 | 1.38491 | 843 ft | 142 kts | 325° |
| 2026-05-07 17:16 | 43.61457 | 1.37661 | 675 ft | 144 kts | 326° |
| 2026-05-07 17:16 | 43.62253 | 1.36842 | 495 ft | 135 kts | 326° |
| 2026-05-07 17:16 | 43.62899 | 1.36165 | 494 ft | 96 kts | 323° |
| 2026-05-07 17:17 | 43.63299 | 1.35752 | 494 ft | 55 kts | 323° |
| 2026-05-07 17:17 | 43.63536 | 1.35509 | 489 ft | 24 kts | 328° |
| 2026-05-07 17:17 | 43.63632 | 1.35581 | 491 ft | 16 kts | 58° |
| 2026-05-07 17:17 | 43.63679 | 1.35683 | 491 ft | 10 kts | 53° |
| 2026-05-07 17:18 | 43.63723 | 1.35765 | 494 ft | 11 kts | 53° |
| 2026-05-07 17:18 | 43.63772 | 1.35853 | 494 ft | 12 kts | 52° |
| 2026-05-07 17:18 | 43.63821 | 1.35951 | 492 ft | 12 kts | 73° |
| 2026-05-07 17:18 | 43.63774 | 1.36036 | 494 ft | 12 kts | 144° |
| 2026-05-07 17:19 | 43.63705 | 1.36105 | 490 ft | 13 kts | 143° |
| 2026-05-07 17:19 | 43.63632 | 1.36181 | 494 ft | 14 kts | 143° |
| 2026-05-07 17:19 | 43.63552 | 1.36265 | 488 ft | 15 kts | 142° |
| 2026-05-07 17:19 | 43.63467 | 1.36355 | 494 ft | 16 kts | 143° |
| 2026-05-07 17:20 | 43.63375 | 1.36448 | 488 ft | 17 kts | 143° |
| 2026-05-07 17:20 | 43.63281 | 1.36550 | 492 ft | 18 kts | 142° |
| 2026-05-07 17:20 | 43.63180 | 1.36651 | 492 ft | 18 kts | 143° |
| 2026-05-07 17:20 | 43.63076 | 1.36760 | 490 ft | 19 kts | 142° |
| 2026-05-07 17:21 | 43.62968 | 1.36871 | 488 ft | 16 kts | 143° |
| 2026-05-07 17:21 | 43.62969 | 1.36990 | 487 ft | 14 kts | 55° |
| 2026-05-07 17:21 | 43.63028 | 1.37093 | 491 ft | 14 kts | 52° |
| 2026-05-07 17:21 | 43.63057 | 1.37199 | 494 ft | 6 kts | 84° |
| 2026-05-07 17:22 | 43.63058 | 1.37212 | 494 ft | 0 kts | 83° |